sensor_id;sensor_type;location;lat;lon;timestamp;temperature;humidity
10911;DHT22;5508;49.150;11.030;2023-05-10T00:02:26;13.20;99.90
10911;DHT22;5508;49.150;11.030;2023-05-10T00:05:27;13.30;99.90
10911;DHT22;5508;49.150;11.030;2023-05-10T00:08:27;13.10;99.90
10911;DHT22;5508;49.150;11.030;2023-05-10T00:11:28;13.10;99.90
10911;DHT22;5508;49.150;11.030;2023-05-10T00:14:29;13.10;99.90
10911;DHT22;5508;49.150;11.030;2023-05-10T00:17:30;13.10;99.90
10911;DHT22;5508;49.150;11.030;2023-05-10T00:20:30;13.00;99.90
10911;DHT22;5508;49.150;11.030;2023-05-10T00:23:31;13.00;99.90
10911;DHT22;5508;49.150;11.030;2023-05-10T00:26:32;13.00;99.90
10911;DHT22;5508;49.150;11.030;2023-05-10T00:29:32;13.00;99.90
10911;DHT22;5508;49.150;11.030;2023-05-10T00:32:34;13.00;99.90
10911;DHT22;5508;49.150;11.030;2023-05-10T00:35:34;12.90;99.90
10911;DHT22;5508;49.150;11.030;2023-05-10T00:38:35;12.90;99.90
10911;DHT22;5508;49.150;11.030;2023-05-10T00:41:35;12.90;99.90
10911;DHT22;5508;49.150;11.030;2023-05-10T00:44:36;13.00;99.90
10911;DHT22;5508;49.150;11.030;2023-05-10T00:47:37;12.80;99.90
10911;DHT22;5508;49.150;11.030;2023-05-10T00:50:38;12.80;99.90
10911;DHT22;5508;49.150;11.030;2023-05-10T00:53:40;12.90;99.90
10911;DHT22;5508;49.150;11.030;2023-05-10T00:56:41;12.80;99.90
10911;DHT22;5508;49.150;11.030;2023-05-10T00:59:42;12.80;99.90
10911;DHT22;5508;49.150;11.030;2023-05-10T01:02:46;12.80;99.90
10911;DHT22;5508;49.150;11.030;2023-05-10T01:05:46;12.90;99.90
10911;DHT22;5508;49.150;11.030;2023-05-10T01:08:47;12.90;99.90
10911;DHT22;5508;49.150;11.030;2023-05-10T01:11:48;12.90;99.90
10911;DHT22;5508;49.150;11.030;2023-05-10T01:14:49;12.90;99.90
10911;DHT22;5508;49.150;11.030;2023-05-10T01:17:50;12.90;99.90
10911;DHT22;5508;49.150;11.030;2023-05-10T01:21:04;12.90;99.90
10911;DHT22;5508;49.150;11.030;2023-05-10T01:31:22;12.70;99.90
10911;DHT22;5508;49.150;11.030;2023-05-10T01:34:46;12.70;99.90
10911;DHT22;5508;49.150;11.030;2023-05-10T01:47:58;12.60;99.90
10911;DHT22;5508;49.150;11.030;2023-05-10T01:51:00;12.70;99.90
10911;DHT22;5508;49.150;11.030;2023-05-10T01:54:02;12.60;99.90
10911;DHT22;5508;49.150;11.030;2023-05-10T01:57:06;12.60;99.90
10911;DHT22;5508;49.150;11.030;2023-05-10T02:00:10;12.70;99.90
10911;DHT22;5508;49.150;11.030;2023-05-10T02:03:12;12.60;99.90
10911;DHT22;5508;49.150;11.030;2023-05-10T02:06:15;12.60;99.90
10911;DHT22;5508;49.150;11.030;2023-05-10T02:09:17;12.70;99.90
10911;DHT22;5508;49.150;11.030;2023-05-10T02:12:19;12.60;99.90
10911;DHT22;5508;49.150;11.030;2023-05-10T02:15:22;12.60;99.90
10911;DHT22;5508;49.150;11.030;2023-05-10T02:18:25;12.70;99.90
10911;DHT22;5508;49.150;11.030;2023-05-10T02:21:28;12.70;99.90
10911;DHT22;5508;49.150;11.030;2023-05-10T02:24:29;12.60;99.90
10911;DHT22;5508;49.150;11.030;2023-05-10T02:27:31;12.60;99.90
10911;DHT22;5508;49.150;11.030;2023-05-10T02:30:33;12.50;99.90
10911;DHT22;5508;49.150;11.030;2023-05-10T02:33:35;12.60;99.90
10911;DHT22;5508;49.150;11.030;2023-05-10T02:36:38;12.70;99.90
10911;DHT22;5508;49.150;11.030;2023-05-10T02:39:39;12.60;99.90
10911;DHT22;5508;49.150;11.030;2023-05-10T02:42:44;12.70;99.90
10911;DHT22;5508;49.150;11.030;2023-05-10T02:45:47;12.70;99.90
10911;DHT22;5508;49.150;11.030;2023-05-10T02:48:48;12.70;99.90
10911;DHT22;5508;49.150;11.030;2023-05-10T02:51:51;12.70;99.90
10911;DHT22;5508;49.150;11.030;2023-05-10T02:54:59;12.60;99.90
10911;DHT22;5508;49.150;11.030;2023-05-10T02:58:02;12.60;99.90
10911;DHT22;5508;49.150;11.030;2023-05-10T03:01:03;12.70;99.90
10911;DHT22;5508;49.150;11.030;2023-05-10T03:04:03;12.60;99.90
10911;DHT22;5508;49.150;11.030;2023-05-10T03:07:04;12.60;99.90
10911;DHT22;5508;49.150;11.030;2023-05-10T03:10:06;12.60;99.90
10911;DHT22;5508;49.150;11.030;2023-05-10T03:13:25;12.50;99.90
10911;DHT22;5508;49.150;11.030;2023-05-10T03:16:34;12.50;99.90
10911;DHT22;5508;49.150;11.030;2023-05-10T03:22:41;12.40;99.90
10911;DHT22;5508;49.150;11.030;2023-05-10T03:25:48;12.30;99.90
10911;DHT22;5508;49.150;11.030;2023-05-10T03:28:50;12.30;99.90
10911;DHT22;5508;49.150;11.030;2023-05-10T03:31:51;12.30;99.90
10911;DHT22;5508;49.150;11.030;2023-05-10T03:34:51;12.30;99.90
10911;DHT22;5508;49.150;11.030;2023-05-10T03:37:52;12.30;99.90
10911;DHT22;5508;49.150;11.030;2023-05-10T03:40:52;12.30;99.90
10911;DHT22;5508;49.150;11.030;2023-05-10T03:43:53;12.20;99.90
10911;DHT22;5508;49.150;11.030;2023-05-10T03:46:54;12.20;99.90
10911;DHT22;5508;49.150;11.030;2023-05-10T03:49:54;12.10;99.90
10911;DHT22;5508;49.150;11.030;2023-05-10T03:52:55;12.20;99.90
10911;DHT22;5508;49.150;11.030;2023-05-10T03:55:55;12.10;99.90
10911;DHT22;5508;49.150;11.030;2023-05-10T03:58:56;12.10;99.90
10911;DHT22;5508;49.150;11.030;2023-05-10T04:01:57;12.10;99.90
10911;DHT22;5508;49.150;11.030;2023-05-10T04:04:57;12.10;99.90
10911;DHT22;5508;49.150;11.030;2023-05-10T04:07:58;12.00;99.90
10911;DHT22;5508;49.150;11.030;2023-05-10T04:11:09;12.00;99.90
10911;DHT22;5508;49.150;11.030;2023-05-10T04:14:09;11.90;99.90
10911;DHT22;5508;49.150;11.030;2023-05-10T04:17:10;11.90;99.90
10911;DHT22;5508;49.150;11.030;2023-05-10T04:20:11;11.90;99.90
10911;DHT22;5508;49.150;11.030;2023-05-10T04:23:12;11.90;99.90
10911;DHT22;5508;49.150;11.030;2023-05-10T04:26:14;11.90;99.90
10911;DHT22;5508;49.150;11.030;2023-05-10T04:29:15;11.90;99.90
10911;DHT22;5508;49.150;11.030;2023-05-10T04:32:16;11.90;99.90
10911;DHT22;5508;49.150;11.030;2023-05-10T04:35:17;11.90;99.90
10911;DHT22;5508;49.150;11.030;2023-05-10T04:38:18;11.90;99.90
10911;DHT22;5508;49.150;11.030;2023-05-10T04:41:18;11.90;99.90
10911;DHT22;5508;49.150;11.030;2023-05-10T04:44:19;11.90;99.90
10911;DHT22;5508;49.150;11.030;2023-05-10T04:47:19;11.90;99.90
10911;DHT22;5508;49.150;11.030;2023-05-10T04:50:20;11.90;99.90
10911;DHT22;5508;49.150;11.030;2023-05-10T04:53:21;11.90;99.90
10911;DHT22;5508;49.150;11.030;2023-05-10T04:56:21;11.80;99.90
10911;DHT22;5508;49.150;11.030;2023-05-10T04:59:22;11.90;99.90
10911;DHT22;5508;49.150;11.030;2023-05-10T05:02:23;11.80;99.90
10911;DHT22;5508;49.150;11.030;2023-05-10T05:05:24;11.80;99.90
10911;DHT22;5508;49.150;11.030;2023-05-10T05:08:24;11.80;99.90
10911;DHT22;5508;49.150;11.030;2023-05-10T05:11:25;11.70;99.90
10911;DHT22;5508;49.150;11.030;2023-05-10T05:14:26;11.70;99.90
10911;DHT22;5508;49.150;11.030;2023-05-10T05:17:26;11.70;99.90
10911;DHT22;5508;49.150;11.030;2023-05-10T05:20:27;11.60;99.90
10911;DHT22;5508;49.150;11.030;2023-05-10T05:23:28;11.70;99.90
10911;DHT22;5508;49.150;11.030;2023-05-10T05:26:28;11.80;99.90
10911;DHT22;5508;49.150;11.030;2023-05-10T05:29:29;11.80;99.90
10911;DHT22;5508;49.150;11.030;2023-05-10T05:32:30;11.90;99.90
10911;DHT22;5508;49.150;11.030;2023-05-10T05:35:30;11.80;99.90
10911;DHT22;5508;49.150;11.030;2023-05-10T05:38:31;11.90;99.90
10911;DHT22;5508;49.150;11.030;2023-05-10T05:41:31;12.00;99.90
10911;DHT22;5508;49.150;11.030;2023-05-10T05:44:32;12.00;99.90
10911;DHT22;5508;49.150;11.030;2023-05-10T05:47:33;12.00;99.90
10911;DHT22;5508;49.150;11.030;2023-05-10T05:50:33;12.10;99.90
10911;DHT22;5508;49.150;11.030;2023-05-10T05:53:34;12.20;99.90
10911;DHT22;5508;49.150;11.030;2023-05-10T05:56:34;12.20;99.90
10911;DHT22;5508;49.150;11.030;2023-05-10T05:59:35;12.20;99.90
10911;DHT22;5508;49.150;11.030;2023-05-10T06:02:36;12.40;99.90
10911;DHT22;5508;49.150;11.030;2023-05-10T06:05:36;12.50;99.90
10911;DHT22;5508;49.150;11.030;2023-05-10T06:08:37;12.60;99.90
10911;DHT22;5508;49.150;11.030;2023-05-10T06:11:38;12.80;99.90
10911;DHT22;5508;49.150;11.030;2023-05-10T06:14:38;13.00;99.90
10911;DHT22;5508;49.150;11.030;2023-05-10T06:17:39;13.20;99.90
10911;DHT22;5508;49.150;11.030;2023-05-10T06:20:41;13.30;99.90
10911;DHT22;5508;49.150;11.030;2023-05-10T06:23:42;13.20;99.90
10911;DHT22;5508;49.150;11.030;2023-05-10T06:26:42;13.40;99.90
10911;DHT22;5508;49.150;11.030;2023-05-10T06:29:43;13.50;99.90
10911;DHT22;5508;49.150;11.030;2023-05-10T06:32:44;13.50;99.90
10911;DHT22;5508;49.150;11.030;2023-05-10T06:35:45;13.40;99.90
10911;DHT22;5508;49.150;11.030;2023-05-10T06:38:45;13.50;99.90
10911;DHT22;5508;49.150;11.030;2023-05-10T06:41:46;13.40;99.90
10911;DHT22;5508;49.150;11.030;2023-05-10T06:44:47;13.40;99.90
10911;DHT22;5508;49.150;11.030;2023-05-10T06:47:47;13.50;99.90
10911;DHT22;5508;49.150;11.030;2023-05-10T06:50:48;13.70;99.90
10911;DHT22;5508;49.150;11.030;2023-05-10T06:53:49;13.70;98.40
10911;DHT22;5508;49.150;11.030;2023-05-10T06:56:49;13.60;94.50
10911;DHT22;5508;49.150;11.030;2023-05-10T06:59:50;13.60;95.70
10911;DHT22;5508;49.150;11.030;2023-05-10T07:02:51;13.60;94.40
10911;DHT22;5508;49.150;11.030;2023-05-10T07:05:52;13.60;94.40
10911;DHT22;5508;49.150;11.030;2023-05-10T07:08:52;13.50;97.40
10911;DHT22;5508;49.150;11.030;2023-05-10T07:11:53;13.40;98.20
10911;DHT22;5508;49.150;11.030;2023-05-10T07:14:54;13.30;97.20
10911;DHT22;5508;49.150;11.030;2023-05-10T07:17:54;13.30;96.70
10911;DHT22;5508;49.150;11.030;2023-05-10T07:20:56;13.30;98.30
10911;DHT22;5508;49.150;11.030;2023-05-10T07:23:57;13.30;98.30
10911;DHT22;5508;49.150;11.030;2023-05-10T07:26:58;13.30;95.70
10911;DHT22;5508;49.150;11.030;2023-05-10T07:29:58;13.40;98.80
10911;DHT22;5508;49.150;11.030;2023-05-10T07:32:59;13.50;95.30
10911;DHT22;5508;49.150;11.030;2023-05-10T07:36:00;13.50;97.00
10911;DHT22;5508;49.150;11.030;2023-05-10T07:39:00;13.50;95.50
10911;DHT22;5508;49.150;11.030;2023-05-10T07:42:01;13.30;95.60
10911;DHT22;5508;49.150;11.030;2023-05-10T07:45:03;13.40;96.20
10911;DHT22;5508;49.150;11.030;2023-05-10T07:48:04;13.50;98.40
10911;DHT22;5508;49.150;11.030;2023-05-10T07:51:05;13.60;96.40
10911;DHT22;5508;49.150;11.030;2023-05-10T07:54:07;13.70;94.90
10911;DHT22;5508;49.150;11.030;2023-05-10T07:57:08;13.70;95.60
10911;DHT22;5508;49.150;11.030;2023-05-10T08:00:09;13.80;89.70
10911;DHT22;5508;49.150;11.030;2023-05-10T08:03:12;14.10;93.10
10911;DHT22;5508;49.150;11.030;2023-05-10T08:06:13;14.40;91.90
10911;DHT22;5508;49.150;11.030;2023-05-10T08:09:14;14.70;90.60
10911;DHT22;5508;49.150;11.030;2023-05-10T08:12:16;14.70;86.40
10911;DHT22;5508;49.150;11.030;2023-05-10T08:15:16;15.00;87.20
10911;DHT22;5508;49.150;11.030;2023-05-10T08:18:17;15.00;85.30
10911;DHT22;5508;49.150;11.030;2023-05-10T08:21:17;15.20;86.50
10911;DHT22;5508;49.150;11.030;2023-05-10T08:24:18;15.30;83.70
10911;DHT22;5508;49.150;11.030;2023-05-10T08:27:19;15.10;82.80
10911;DHT22;5508;49.150;11.030;2023-05-10T08:30:20;14.90;85.40
10911;DHT22;5508;49.150;11.030;2023-05-10T08:33:20;14.80;86.20
10911;DHT22;5508;49.150;11.030;2023-05-10T08:36:21;14.70;87.50
10911;DHT22;5508;49.150;11.030;2023-05-10T08:39:24;14.80;84.50
10911;DHT22;5508;49.150;11.030;2023-05-10T08:42:26;15.30;86.50
10911;DHT22;5508;49.150;11.030;2023-05-10T08:45:32;15.70;82.60
10911;DHT22;5508;49.150;11.030;2023-05-10T08:48:34;15.90;79.30
10911;DHT22;5508;49.150;11.030;2023-05-10T08:51:36;15.70;80.20
10911;DHT22;5508;49.150;11.030;2023-05-10T08:54:39;15.70;82.10
10911;DHT22;5508;49.150;11.030;2023-05-10T08:57:39;15.80;80.10
10911;DHT22;5508;49.150;11.030;2023-05-10T09:00:40;15.60;78.80
10911;DHT22;5508;49.150;11.030;2023-05-10T09:03:41;15.40;82.30
10911;DHT22;5508;49.150;11.030;2023-05-10T09:06:42;15.20;81.80
10911;DHT22;5508;49.150;11.030;2023-05-10T09:09:43;15.60;80.80
10911;DHT22;5508;49.150;11.030;2023-05-10T09:12:44;15.80;80.90
10911;DHT22;5508;49.150;11.030;2023-05-10T09:15:46;15.90;79.90
10911;DHT22;5508;49.150;11.030;2023-05-10T09:18:47;16.30;77.60
10911;DHT22;5508;49.150;11.030;2023-05-10T09:21:48;16.70;75.00
10911;DHT22;5508;49.150;11.030;2023-05-10T09:25:07;16.40;77.10
10911;DHT22;5508;49.150;11.030;2023-05-10T09:28:08;16.30;76.20
10911;DHT22;5508;49.150;11.030;2023-05-10T09:31:09;16.10;76.90
10911;DHT22;5508;49.150;11.030;2023-05-10T09:34:10;15.80;79.00
10911;DHT22;5508;49.150;11.030;2023-05-10T09:37:11;15.30;79.40
10911;DHT22;5508;49.150;11.030;2023-05-10T09:40:14;14.90;81.30
10911;DHT22;5508;49.150;11.030;2023-05-10T09:43:15;14.70;82.90
10911;DHT22;5508;49.150;11.030;2023-05-10T09:46:16;14.80;81.90
10911;DHT22;5508;49.150;11.030;2023-05-10T09:49:17;15.00;82.50
10911;DHT22;5508;49.150;11.030;2023-05-10T09:52:17;15.20;79.80
10911;DHT22;5508;49.150;11.030;2023-05-10T09:55:20;15.20;81.20
10911;DHT22;5508;49.150;11.030;2023-05-10T09:58:22;15.40;80.00
10911;DHT22;5508;49.150;11.030;2023-05-10T10:01:26;15.40;79.40
10911;DHT22;5508;49.150;11.030;2023-05-10T10:04:26;15.40;78.80
10911;DHT22;5508;49.150;11.030;2023-05-10T10:07:27;15.20;79.20
10911;DHT22;5508;49.150;11.030;2023-05-10T10:10:28;15.10;79.20
10911;DHT22;5508;49.150;11.030;2023-05-10T10:13:29;15.30;78.40
10911;DHT22;5508;49.150;11.030;2023-05-10T10:16:30;15.50;76.60
10911;DHT22;5508;49.150;11.030;2023-05-10T10:19:33;15.70;75.70
10911;DHT22;5508;49.150;11.030;2023-05-10T10:22:34;15.60;77.00
10911;DHT22;5508;49.150;11.030;2023-05-10T10:25:35;15.80;77.70
10911;DHT22;5508;49.150;11.030;2023-05-10T10:32:09;15.80;76.60
10911;DHT22;5508;49.150;11.030;2023-05-10T10:35:12;15.70;76.30
10911;DHT22;5508;49.150;11.030;2023-05-10T10:38:13;15.40;78.30
10911;DHT22;5508;49.150;11.030;2023-05-10T10:41:34;15.10;79.40
10911;DHT22;5508;49.150;11.030;2023-05-10T10:44:36;15.10;78.60
10911;DHT22;5508;49.150;11.030;2023-05-10T10:47:38;15.00;79.10
10911;DHT22;5508;49.150;11.030;2023-05-10T10:50:45;15.00;79.60
10911;DHT22;5508;49.150;11.030;2023-05-10T10:53:48;15.10;77.80
10911;DHT22;5508;49.150;11.030;2023-05-10T10:57:12;15.20;79.10
10911;DHT22;5508;49.150;11.030;2023-05-10T11:03:27;15.50;78.80
10911;DHT22;5508;49.150;11.030;2023-05-10T11:09:39;16.40;74.00
10911;DHT22;5508;49.150;11.030;2023-05-10T11:12:51;16.80;72.50
10911;DHT22;5508;49.150;11.030;2023-05-10T11:15:53;17.30;65.80
10911;DHT22;5508;49.150;11.030;2023-05-10T11:18:58;17.30;65.30
10911;DHT22;5508;49.150;11.030;2023-05-10T11:25:06;17.00;70.90
10911;DHT22;5508;49.150;11.030;2023-05-10T11:28:07;16.70;71.40
10911;DHT22;5508;49.150;11.030;2023-05-10T11:31:09;16.60;71.40
10911;DHT22;5508;49.150;11.030;2023-05-10T11:34:10;16.50;71.20
10911;DHT22;5508;49.150;11.030;2023-05-10T11:37:11;15.70;70.70
10911;DHT22;5508;49.150;11.030;2023-05-10T11:40:12;15.10;75.80
10911;DHT22;5508;49.150;11.030;2023-05-10T11:43:12;14.70;79.60
10911;DHT22;5508;49.150;11.030;2023-05-10T11:46:13;14.50;81.80
10911;DHT22;5508;49.150;11.030;2023-05-10T11:49:14;14.20;81.40
10911;DHT22;5508;49.150;11.030;2023-05-10T11:52:14;14.20;82.30
10911;DHT22;5508;49.150;11.030;2023-05-10T11:55:15;14.10;80.20
10911;DHT22;5508;49.150;11.030;2023-05-10T11:58:18;14.10;81.70
10911;DHT22;5508;49.150;11.030;2023-05-10T12:01:18;14.20;82.20
10911;DHT22;5508;49.150;11.030;2023-05-10T12:04:19;14.30;81.20
10911;DHT22;5508;49.150;11.030;2023-05-10T12:07:20;14.50;81.80
10911;DHT22;5508;49.150;11.030;2023-05-10T12:10:25;14.80;81.30
10911;DHT22;5508;49.150;11.030;2023-05-10T12:13:26;14.90;81.70
10911;DHT22;5508;49.150;11.030;2023-05-10T12:16:29;15.00;79.40
10911;DHT22;5508;49.150;11.030;2023-05-10T12:19:37;15.40;79.30
10911;DHT22;5508;49.150;11.030;2023-05-10T12:22:38;15.80;76.80
10911;DHT22;5508;49.150;11.030;2023-05-10T12:25:39;15.80;76.30
10911;DHT22;5508;49.150;11.030;2023-05-10T12:28:40;16.00;76.00
10911;DHT22;5508;49.150;11.030;2023-05-10T12:32:09;16.10;75.20
10911;DHT22;5508;49.150;11.030;2023-05-10T12:35:10;16.40;73.30
10911;DHT22;5508;49.150;11.030;2023-05-10T12:38:33;16.70;73.50
10911;DHT22;5508;49.150;11.030;2023-05-10T12:41:34;16.90;72.40
10911;DHT22;5508;49.150;11.030;2023-05-10T12:44:35;16.80;73.80
10911;DHT22;5508;49.150;11.030;2023-05-10T12:47:35;17.10;73.10
10911;DHT22;5508;49.150;11.030;2023-05-10T12:50:36;17.00;72.10
10911;DHT22;5508;49.150;11.030;2023-05-10T12:53:38;17.20;71.10
10911;DHT22;5508;49.150;11.030;2023-05-10T12:56:39;17.10;70.90
10911;DHT22;5508;49.150;11.030;2023-05-10T12:59:41;17.20;66.30
10911;DHT22;5508;49.150;11.030;2023-05-10T13:02:41;17.20;67.20
10911;DHT22;5508;49.150;11.030;2023-05-10T13:05:42;17.20;67.00
10911;DHT22;5508;49.150;11.030;2023-05-10T13:08:42;17.00;67.50
10911;DHT22;5508;49.150;11.030;2023-05-10T13:11:43;16.70;72.90
10911;DHT22;5508;49.150;11.030;2023-05-10T13:14:44;16.80;71.70
10911;DHT22;5508;49.150;11.030;2023-05-10T13:17:45;17.10;68.20
10911;DHT22;5508;49.150;11.030;2023-05-10T13:20:45;17.20;71.60
10911;DHT22;5508;49.150;11.030;2023-05-10T13:23:46;17.30;72.20
10911;DHT22;5508;49.150;11.030;2023-05-10T13:26:47;17.40;69.70
10911;DHT22;5508;49.150;11.030;2023-05-10T13:29:47;17.10;73.10
10911;DHT22;5508;49.150;11.030;2023-05-10T13:32:48;17.00;70.90
10911;DHT22;5508;49.150;11.030;2023-05-10T13:35:48;17.20;68.30
10911;DHT22;5508;49.150;11.030;2023-05-10T13:38:49;17.20;71.50
10911;DHT22;5508;49.150;11.030;2023-05-10T13:41:50;17.20;68.20
10911;DHT22;5508;49.150;11.030;2023-05-10T13:44:50;16.90;70.00
10911;DHT22;5508;49.150;11.030;2023-05-10T13:47:51;16.90;68.70
10911;DHT22;5508;49.150;11.030;2023-05-10T13:50:52;16.70;68.90
10911;DHT22;5508;49.150;11.030;2023-05-10T13:53:52;16.70;70.10
10911;DHT22;5508;49.150;11.030;2023-05-10T13:56:53;17.00;70.00
10911;DHT22;5508;49.150;11.030;2023-05-10T13:59:54;16.90;67.80
10911;DHT22;5508;49.150;11.030;2023-05-10T14:02:54;16.70;70.10
10911;DHT22;5508;49.150;11.030;2023-05-10T14:05:55;16.50;70.40
10911;DHT22;5508;49.150;11.030;2023-05-10T14:08:55;16.00;73.60
10911;DHT22;5508;49.150;11.030;2023-05-10T14:11:56;15.60;75.20
10911;DHT22;5508;49.150;11.030;2023-05-10T14:14:57;15.40;76.70
10911;DHT22;5508;49.150;11.030;2023-05-10T14:17:58;15.10;81.70
10911;DHT22;5508;49.150;11.030;2023-05-10T14:20:59;14.90;85.90
10911;DHT22;5508;49.150;11.030;2023-05-10T14:23:59;14.80;86.90
10911;DHT22;5508;49.150;11.030;2023-05-10T14:27:00;14.80;87.40
10911;DHT22;5508;49.150;11.030;2023-05-10T14:30:01;14.60;87.60
10911;DHT22;5508;49.150;11.030;2023-05-10T14:33:02;14.80;88.30
10911;DHT22;5508;49.150;11.030;2023-05-10T14:36:03;14.80;87.40
10911;DHT22;5508;49.150;11.030;2023-05-10T14:39:04;14.90;89.20
10911;DHT22;5508;49.150;11.030;2023-05-10T14:42:05;14.90;89.50
10911;DHT22;5508;49.150;11.030;2023-05-10T14:45:06;15.00;89.10
10911;DHT22;5508;49.150;11.030;2023-05-10T14:48:06;15.20;90.20
10911;DHT22;5508;49.150;11.030;2023-05-10T14:51:11;15.20;90.70
10911;DHT22;5508;49.150;11.030;2023-05-10T14:54:12;15.40;90.20
10911;DHT22;5508;49.150;11.030;2023-05-10T14:57:12;15.50;87.80
10911;DHT22;5508;49.150;11.030;2023-05-10T15:00:13;15.50;89.40
10911;DHT22;5508;49.150;11.030;2023-05-10T15:03:15;15.70;87.30
10911;DHT22;5508;49.150;11.030;2023-05-10T15:06:16;15.40;87.20
10911;DHT22;5508;49.150;11.030;2023-05-10T15:09:17;15.50;89.00
10911;DHT22;5508;49.150;11.030;2023-05-10T15:12:18;15.40;88.50
10911;DHT22;5508;49.150;11.030;2023-05-10T15:15:19;15.60;88.60
10911;DHT22;5508;49.150;11.030;2023-05-10T15:18:19;15.50;89.20
10911;DHT22;5508;49.150;11.030;2023-05-10T15:21:20;14.40;82.50
10911;DHT22;5508;49.150;11.030;2023-05-10T15:24:21;14.20;84.60
10911;DHT22;5508;49.150;11.030;2023-05-10T15:27:22;13.80;88.00
10911;DHT22;5508;49.150;11.030;2023-05-10T15:30:23;13.50;89.70
10911;DHT22;5508;49.150;11.030;2023-05-10T15:33:23;13.30;90.60
10911;DHT22;5508;49.150;11.030;2023-05-10T15:36:24;13.20;92.30
10911;DHT22;5508;49.150;11.030;2023-05-10T15:39:25;13.20;92.80
10911;DHT22;5508;49.150;11.030;2023-05-10T15:42:25;13.00;94.30
10911;DHT22;5508;49.150;11.030;2023-05-10T15:45:26;12.90;97.70
10911;DHT22;5508;49.150;11.030;2023-05-10T15:48:27;12.80;96.70
10911;DHT22;5508;49.150;11.030;2023-05-10T15:51:27;13.00;97.40
10911;DHT22;5508;49.150;11.030;2023-05-10T15:54:28;12.90;95.70
10911;DHT22;5508;49.150;11.030;2023-05-10T15:57:29;12.80;97.60
10911;DHT22;5508;49.150;11.030;2023-05-10T16:00:29;12.80;97.80
10911;DHT22;5508;49.150;11.030;2023-05-10T16:03:30;12.70;97.90
10911;DHT22;5508;49.150;11.030;2023-05-10T16:06:31;12.70;97.40
10911;DHT22;5508;49.150;11.030;2023-05-10T16:09:32;12.80;97.80
10911;DHT22;5508;49.150;11.030;2023-05-10T16:12:32;12.80;97.10
10911;DHT22;5508;49.150;11.030;2023-05-10T16:15:33;12.80;95.60
10911;DHT22;5508;49.150;11.030;2023-05-10T16:18:34;12.90;96.60
10911;DHT22;5508;49.150;11.030;2023-05-10T16:21:35;12.90;95.90
10911;DHT22;5508;49.150;11.030;2023-05-10T16:24:35;13.00;93.90
10911;DHT22;5508;49.150;11.030;2023-05-10T16:27:36;13.00;95.00
10911;DHT22;5508;49.150;11.030;2023-05-10T16:30:37;13.10;96.50
10911;DHT22;5508;49.150;11.030;2023-05-10T16:33:38;13.10;95.20
10911;DHT22;5508;49.150;11.030;2023-05-10T16:36:38;13.20;93.70
10911;DHT22;5508;49.150;11.030;2023-05-10T16:39:39;13.30;94.20
10911;DHT22;5508;49.150;11.030;2023-05-10T16:42:39;13.20;95.60
10911;DHT22;5508;49.150;11.030;2023-05-10T16:45:40;13.10;95.80
10911;DHT22;5508;49.150;11.030;2023-05-10T16:48:41;13.00;96.40
10911;DHT22;5508;49.150;11.030;2023-05-10T16:51:42;13.00;96.30
10911;DHT22;5508;49.150;11.030;2023-05-10T16:54:42;12.90;95.60
10911;DHT22;5508;49.150;11.030;2023-05-10T16:57:43;12.80;95.40
10911;DHT22;5508;49.150;11.030;2023-05-10T17:00:43;12.70;94.80
10911;DHT22;5508;49.150;11.030;2023-05-10T17:03:44;12.70;96.90
10911;DHT22;5508;49.150;11.030;2023-05-10T17:06:45;12.70;97.00
10911;DHT22;5508;49.150;11.030;2023-05-10T17:09:46;12.70;97.20
10911;DHT22;5508;49.150;11.030;2023-05-10T17:12:46;12.70;97.60
10911;DHT22;5508;49.150;11.030;2023-05-10T17:15:47;12.70;97.70
10911;DHT22;5508;49.150;11.030;2023-05-10T17:18:47;12.60;98.50
10911;DHT22;5508;49.150;11.030;2023-05-10T17:21:48;12.60;99.90
10911;DHT22;5508;49.150;11.030;2023-05-10T17:24:49;12.50;99.90
10911;DHT22;5508;49.150;11.030;2023-05-10T17:27:50;12.50;99.90
10911;DHT22;5508;49.150;11.030;2023-05-10T17:30:55;12.50;99.90
10911;DHT22;5508;49.150;11.030;2023-05-10T17:33:56;12.50;99.90
10911;DHT22;5508;49.150;11.030;2023-05-10T17:36:57;12.40;99.90
10911;DHT22;5508;49.150;11.030;2023-05-10T17:39:59;12.50;99.90
10911;DHT22;5508;49.150;11.030;2023-05-10T17:42:59;12.40;99.90
10911;DHT22;5508;49.150;11.030;2023-05-10T17:46:00;12.30;99.90
10911;DHT22;5508;49.150;11.030;2023-05-10T17:49:01;12.30;99.90
10911;DHT22;5508;49.150;11.030;2023-05-10T17:52:01;12.20;99.90
10911;DHT22;5508;49.150;11.030;2023-05-10T17:55:02;12.20;99.90
10911;DHT22;5508;49.150;11.030;2023-05-10T17:58:03;12.30;99.90
10911;DHT22;5508;49.150;11.030;2023-05-10T18:01:04;12.30;99.90
10911;DHT22;5508;49.150;11.030;2023-05-10T18:04:05;12.20;99.90
10911;DHT22;5508;49.150;11.030;2023-05-10T18:07:06;12.20;99.90
10911;DHT22;5508;49.150;11.030;2023-05-10T18:10:07;12.20;99.90
10911;DHT22;5508;49.150;11.030;2023-05-10T18:13:08;12.30;99.90
10911;DHT22;5508;49.150;11.030;2023-05-10T18:16:08;12.20;99.90
10911;DHT22;5508;49.150;11.030;2023-05-10T18:19:11;12.20;99.90
10911;DHT22;5508;49.150;11.030;2023-05-10T18:22:12;12.10;99.90
10911;DHT22;5508;49.150;11.030;2023-05-10T18:25:13;12.10;99.90
10911;DHT22;5508;49.150;11.030;2023-05-10T18:28:13;12.10;99.90
10911;DHT22;5508;49.150;11.030;2023-05-10T18:31:14;12.10;99.90
10911;DHT22;5508;49.150;11.030;2023-05-10T18:34:15;12.10;99.90
10911;DHT22;5508;49.150;11.030;2023-05-10T18:37:16;12.10;99.90
10911;DHT22;5508;49.150;11.030;2023-05-10T18:40:16;12.00;99.90
10911;DHT22;5508;49.150;11.030;2023-05-10T18:43:18;11.90;99.90
10911;DHT22;5508;49.150;11.030;2023-05-10T18:46:19;11.90;99.90
10911;DHT22;5508;49.150;11.030;2023-05-10T18:49:20;11.90;99.90
10911;DHT22;5508;49.150;11.030;2023-05-10T18:52:20;11.80;99.90
10911;DHT22;5508;49.150;11.030;2023-05-10T18:55:23;11.80;99.90
10911;DHT22;5508;49.150;11.030;2023-05-10T18:58:26;11.80;99.90
10911;DHT22;5508;49.150;11.030;2023-05-10T19:01:27;11.80;99.90
10911;DHT22;5508;49.150;11.030;2023-05-10T19:04:28;11.70;99.90
10911;DHT22;5508;49.150;11.030;2023-05-10T19:07:28;11.70;99.90
10911;DHT22;5508;49.150;11.030;2023-05-10T19:10:29;11.70;99.90
10911;DHT22;5508;49.150;11.030;2023-05-10T19:13:29;11.60;99.90
10911;DHT22;5508;49.150;11.030;2023-05-10T19:16:30;11.60;99.90
10911;DHT22;5508;49.150;11.030;2023-05-10T19:19:33;11.70;99.90
10911;DHT22;5508;49.150;11.030;2023-05-10T19:22:33;11.80;99.90
10911;DHT22;5508;49.150;11.030;2023-05-10T19:25:34;11.70;99.90
10911;DHT22;5508;49.150;11.030;2023-05-10T19:28:35;11.60;99.90
10911;DHT22;5508;49.150;11.030;2023-05-10T19:31:36;11.60;99.90
10911;DHT22;5508;49.150;11.030;2023-05-10T19:34:36;11.70;99.90
10911;DHT22;5508;49.150;11.030;2023-05-10T19:37:37;11.60;99.90
10911;DHT22;5508;49.150;11.030;2023-05-10T19:40:37;11.60;99.90